createdAt,value
2019-05-30T00:00:55.989Z,3.2
2019-05-30T00:03:35.023Z,3.8
2019-05-30T00:13:42.219Z,2.5
2019-05-30T00:23:53.731Z,3.1
2019-05-30T00:34:06.158Z,3
2019-05-30T00:44:18.435Z,3.6
2019-05-30T00:54:31.245Z,5
2019-05-30T01:04:41.121Z,3.9
2019-05-30T01:14:51.591Z,4.2
2019-05-30T01:25:06.051Z,3.4
2019-05-30T01:35:13.651Z,5.9
2019-05-30T01:45:28.263Z,4.2
2019-05-30T01:55:39.299Z,4.5
2019-05-30T02:05:50.030Z,5
2019-05-30T02:15:59.762Z,6.6
2019-05-30T02:26:11.993Z,5.6
2019-05-30T02:36:23.762Z,5
2019-05-30T02:46:36.715Z,3.8
2019-05-30T02:56:48.633Z,4
2019-05-30T03:06:56.212Z,4.1
2019-05-30T03:17:12.658Z,3.6
2019-05-30T03:27:18.832Z,4.6
2019-05-30T03:37:32.295Z,3.7
2019-05-30T03:47:48.395Z,3
2019-05-30T03:57:51.920Z,4.9
2019-05-30T04:08:04.232Z,4.1
2019-05-30T04:18:16.975Z,6.2
2019-05-30T04:28:29.249Z,2.8
2019-05-30T04:38:41.396Z,4.8
2019-05-30T04:48:55.790Z,3.2
2019-05-30T04:59:03.827Z,2.6
2019-05-30T05:09:17.686Z,3.2
2019-05-30T05:19:27.174Z,4.4
2019-05-30T05:29:41.296Z,1.6
2019-05-30T05:39:54.891Z,1.4
2019-05-30T05:50:03.230Z,1
2019-05-30T06:00:18.877Z,1.8
2019-05-30T06:10:23.883Z,1.6
2019-05-30T06:20:39.261Z,1.6
2019-05-30T06:30:51.007Z,1.6
2019-05-30T06:41:04.745Z,1.5
2019-05-30T06:51:10.429Z,2.3
2019-05-30T07:01:22.275Z,1.7
2019-05-30T07:11:33.244Z,1.3
2019-05-30T07:21:45.840Z,4.2
2019-05-30T07:31:56.864Z,1.8
2019-05-30T07:42:08.672Z,2.2
2019-05-30T07:52:19.001Z,2.4
2019-05-30T08:02:31.720Z,1.9
2019-05-30T08:12:43.320Z,2.3
2019-05-30T08:22:55.664Z,8
2019-05-30T08:33:07.246Z,1.8
2019-05-30T08:43:18.221Z,1
2019-05-30T08:53:28.364Z,1.1
2019-05-30T09:03:42.294Z,1.2
2019-05-30T09:13:51.852Z,2.4
2019-05-30T09:24:05.262Z,2.1
2019-05-30T09:34:19.340Z,1.3
2019-05-30T09:44:28.303Z,2.1
2019-05-30T09:54:42.914Z,2
2019-05-30T10:04:50.584Z,2.4
2019-05-30T10:15:09.479Z,2.1
2019-05-30T10:25:13.717Z,1.9
2019-05-30T10:35:30.296Z,1.2
2019-05-30T10:45:36.558Z,1.8
2019-05-30T10:55:48.165Z,2.4
2019-05-30T11:05:58.695Z,1.5
2019-05-30T11:16:13.847Z,2.9
2019-05-30T11:26:21.535Z,2.5
2019-05-30T11:36:34.546Z,1.5
2019-05-30T11:46:46.789Z,1.5
2019-05-30T11:57:00.432Z,1.3
2019-05-30T12:07:08.720Z,1.9
2019-05-30T12:17:23.765Z,0.6
2019-05-30T12:27:33.008Z,1.8
2019-05-30T12:38:01.137Z,0.5
2019-05-30T12:40:41.774Z,1.6
2019-05-30T12:50:55.340Z,1.1
2019-05-30T13:01:06.843Z,1.7
2019-05-30T13:11:16.052Z,1.7
2019-05-30T13:21:30.634Z,0.6
2019-05-30T13:31:40.718Z,0.5
2019-05-30T13:41:53.912Z,2
2019-05-30T13:52:05.386Z,0.6
2019-05-30T14:02:15.791Z,1.2
2019-05-30T14:12:37.880Z,1.2
2019-05-30T14:22:35.957Z,1.3
2019-05-30T14:32:50.711Z,1.8
2019-05-30T14:43:03.667Z,1.5
2019-05-30T14:53:11.121Z,1.4
2019-05-30T15:03:24.237Z,1.2
2019-05-30T15:13:33.432Z,0.7
2019-05-30T15:23:42.264Z,1.4
2019-05-30T15:33:52.170Z,1.1
2019-05-30T15:44:03.445Z,1.1
2019-05-30T15:54:17.423Z,0.3
2019-05-30T16:04:26.125Z,1.3
2019-05-30T16:14:39.943Z,1.2
2019-05-30T16:24:49.417Z,1
2019-05-30T16:35:00.452Z,1.5
2019-05-30T16:45:17.371Z,1.2
2019-05-30T16:55:23.617Z,1.8
2019-05-30T17:05:35.930Z,1.2
2019-05-30T17:15:48.517Z,2.9
2019-05-30T17:25:59.876Z,2.2
2019-05-30T17:36:09.320Z,1.1
2019-05-30T17:46:21.414Z,1.7
2019-05-30T17:56:30.470Z,2.2
2019-05-30T18:06:43.245Z,1.6
2019-05-30T18:16:55.730Z,1.5
2019-05-30T18:27:05.583Z,2
2019-05-30T18:37:15.420Z,1.9
2019-05-30T18:47:27.186Z,1.4
2019-05-30T18:57:39.793Z,1.5
2019-05-30T19:07:50.512Z,1.4
2019-05-30T19:18:00.553Z,1.6
2019-05-30T19:28:11.819Z,1.8
2019-05-30T19:38:23.808Z,1.3
2019-05-30T19:48:36.649Z,1.4
2019-05-30T19:58:45.209Z,2.1
2019-05-30T20:08:58.359Z,1.4
2019-05-30T20:19:10.559Z,1.1
2019-05-30T20:29:19.329Z,2.2
2019-05-30T20:39:34.833Z,1.2
2019-05-30T20:49:41.289Z,1.7
2019-05-30T20:59:54.995Z,1.8
2019-05-30T21:10:08.634Z,1.2
2019-05-30T21:20:16.710Z,1.9
2019-05-30T21:30:25.553Z,1.2
2019-05-30T21:40:36.670Z,1.3
2019-05-30T21:50:50.334Z,1.4
2019-05-30T22:00:59.102Z,1.6
2019-05-30T22:11:13.965Z,1.3
2019-05-30T22:21:24.792Z,1.2
2019-05-30T22:31:33.488Z,1.4
2019-05-30T22:41:45.951Z,1.1
2019-05-30T22:52:00.223Z,1.5
2019-05-30T23:02:11.820Z,1.2
2019-05-30T23:12:25.388Z,1.3
2019-05-30T23:22:31.208Z,1.7
2019-05-30T23:32:44.397Z,0.8
2019-05-30T23:42:57.374Z,1.6
2019-05-30T23:53:09.847Z,2.2
